Ride Results

Gundagai (30-04-2006)
Ride distance: 80.0 km

Outcomes - Gundagai (30-04-2006)
Division No. of Entries Retired / DNE Completed Withdrawn Ineligible V/O Percentage Completed
HW 16 - 14 - - 2 87.50%
MW 37 - 31 - - 6 83.78%
LW 14 - 14 - - - 100.00%
JN 7 - 4 - - 3 57.14%
Totals 74 - 63 - - 11 85.14%
Results - Gundagai (30-04-2006)
No. Rider Horse Place Time Leg Speeds Total
Km/Hr
H/R bpm
Heavyweight
46 Scott Davenport Alhambra Pierrot 1 (BC) 4:04:00 23.3, 17.0 19.67 32, 40, 45 (Avg:42)
45 Andrew Bailey Allira Park Prince Of Light 2 4:13:00 23.3, 15.9 18.97 32, 36, 43 (Avg:39)
50 Peter Norman Levi Ledgend 3 4:45:00 22.0, 13.6 16.84 37, 46, 51 (Avg:48)
42 Len Derkacz Torryburn Rahal 4 5:41:00 20.3, 10.7 14.08 34, 46, 53 (Avg:49)
48 Stuart Lymbery Myrimbah Kahlil 5 5:58:00 19.5, 10.2 13.41 39, 43, 46 (Avg:44)
52 Laurie Stevens Snowy Mountain Cascade 6 6:09:00 18.6, 9.9 13.01 27, 39, 47 (Avg:43)
231 Steven Robinson Bara Park Bernie 7 6:29:00 13.2, 11.5 12.34 37, 38, 58 (Avg:48)
43 Ian Brown Unique Design 8 6:34:00 17.6, 9.3 12.18 32, 42, 54 (Avg:48)
55 Marty Moran Whyneemah Ezra 9 6:57:00 13.3, 10.1 11.51 48, 44, 43 (Avg:43)
49 Jason Duff Judeesia Splash 10 7:23:00 13.1, 9.1 10.84 36, 38, 51 (Avg:44)
53 Frank Mollema Yaraandoo Jakara Silver 10 7:23:00 13.3, 9.1 10.84 32, 40, 53 (Avg:46)
54 Mathew Thuaux Tavern Park Shiraz 12 7:28:00 13.3, 8.9 10.71 33, 36, 52 (Avg:44)
44 Simon Yeadon The Revolutionist 13 7:36:00 13.2, 8.7 10.53 41, 40, 51 (Avg:45)
51 Belinda Hopley Girilambone Sorcerer 14 8:07:00 12.9, 7.9 9.86 40, 39, 48 (Avg:43)
47 Casey Smith Rosemont Blu Pharoah Lame L1 0:00:00 19.5 - 32, 41 (Avg:41)
41 Con Bouzianis Kontender Gall or injury P/R 0:00:00 - - 43
Middleweight
22 Tony Norman Valinor Park Moonshadow 1 (BC) 4:13:00 23.5, 15.8 18.97 32, 45, 44 (Avg:44)
8 Rowena Robinson Karumba Nazrani 2 4:17:00 23.0, 15.6 18.68 32, 40, 43 (Avg:41)
19 Julie Scruse Danjera Kadhir 2 4:17:00 23.5, 15.4 18.68 34, 36, 44 (Avg:40)
6 Angelina Patterson Karabil Binaal 4 4:27:00 21.0, 15.6 17.98 29, 38, 39 (Avg:38)
18 Tracy-Lee Cossor Kelkette Park Legend 5 4:29:00 19.3, 16.5 17.84 40, 38, 46 (Avg:42)
27 Michael Leary Man About Town 6 4:59:00 19.9, 13.4 16.05 33, 42, 45 (Avg:43)
1 Tony Douch Ditone Wahabi 7 5:16:00 23.5, 11.2 15.19 34, 41, 59 (Avg:50)
12 Kristie Taprell Brookman Park Pagan 8 5:17:00 18.1, 12.9 15.14 34, 42, 47 (Avg:44)
28 Duncan McLaughlin Revelwood Shaja 9 5:19:00 19.1, 12.3 15.05 36, 41, 59 (Avg:50)
21 Mark Harding Bellarine Pasha 10 5:42:00 22.0, 10.3 14.04 35, 38, 47 (Avg:42)
37 Duncan Satchell Alhambra Mirage 11 5:49:00 17.0, 11.5 13.75 36, 40, 55 (Avg:47)
7 Sharyn Coulston Boondilla Bootscoot 12 5:58:00 18.1, 10.6 13.41 36, 40, 53 (Avg:46)
35 Tracy Haack Romac Anastasia 13 6:00:00 19.5, 10.1 13.33 44, 45, 42 (Avg:43)
34 Beverley Rayner-Mason Karumba Beaujolais 14 6:07:00 19.9, 9.7 13.08 37, 41, 43 (Avg:42)
31 Virginia Dodson Franshar Park K Shar 15 6:10:00 19.5, 9.7 12.97 34, 42, 54 (Avg:48)
29 Cathy Preston Black Springs Rhontone 16 6:24:00 16.2, 10.1 12.50 37, 42, 59 (Avg:50)
36 Pele Cannon PPP Xan 17 6:25:00 13.3, 11.7 12.47 46, 40, 58 (Avg:49)
32 Dee O'Mara Kaferthal Odyssey 18 6:30:00 15.7, 10.0 12.31 38, 41, 54 (Avg:47)
10 Sue Gerrard Salamay Naomi 19 6:31:00 17.2, 9.5 12.28 36, 39, 48 (Avg:43)
15 Asher Batty Castlebar Oslo 20 6:35:00 13.3, 11.1 12.15 36, 44, 50 (Avg:47)
3 Jody O'Leary-Gowen Shahira Titian Moon 21 6:42:00 15.7, 9.5 11.94 37, 43, 56 (Avg:49)
9 Kevin Guihot Dazzling Dee Jay 22 6:55:00 13.1, 10.3 11.57 32, 38, 46 (Avg:42)
20 Anne Lymbery Garonne Park Tiara 23 7:17:00 12.9, 9.5 10.98 34, 36, 46 (Avg:41)
33 Alan Lindsay Magic Glenn Hi Di 24 7:27:00 13.3, 8.9 10.74 32, 38, 45 (Avg:41)
17 Wendy Riha Magic Glenn Aaron 25 7:28:00 13.1, 9.0 10.71 31, 36, 45 (Avg:40)
13 Linda Tanian Castlebar Calipo 25 7:28:00 13.3, 8.9 10.71 34, 38, 53 (Avg:45)
2 Doug Stevens Ridgecrest Encounter 27 7:34:00 13.1, 8.8 10.57 33, 48, 48 (Avg:48)
23 Carly Hallett Yerorlonga Magic Morning 28 7:42:00 13.3, 8.5 10.39 35, 39, 45 (Avg:42)
25 Helen Cameron Karabil Kaiya Hai 29 8:07:00 12.9, 7.9 9.86 36, 42, 44 (Avg:43)
26 John Robertson Churinga J'amee 29 8:07:00 12.9, 7.9 9.86 37, 38, 50 (Avg:44)
24 James Ryan Brandy 29 8:07:00 12.9, 7.9 9.86 34, 43, 55 (Avg:49)
5 Douglas Avery Conderosa Rassim Lame L2 0:00:00 19.6, 14.2 - 36, 38, 45 (Avg:41)
30 Steven Roberts Bendy Creek Arrival Lame L2 0:00:00 16.5, 8.9 - 37, 43, 42 (Avg:42)
38 Harry Robinson Parlour Mountain Little Hawk Lame L2 0:00:00 13.1, 11.5 - 36, 44, 0 (Avg:22)
4 Tom Bouzianis Fairlight Shakira Lame L1 0:00:00 19.6 - 34, 44 (Avg:44)
11 Pauline Brewer Danjera Barassi Lame L1 0:00:00 21.6 - 35, 42 (Avg:42)
14 Jessica Dastani Magic Glenn Glome Lame L1 0:00:00 13.1 - 36, 38 (Avg:38)
Lightweight
61 Shelly Ison Topaz Cruiser 1 (BC) 4:26:00 22.0, 15.2 18.05 35, 40, 45 (Avg:42)
64 Sue McLaughlin Cudgelbar Tarquin 2 5:19:00 19.1, 12.3 15.05 34, 38, 50 (Avg:44)
57 Jodi Dewick Canyonleigh Stargazer 3 6:24:00 13.1, 11.8 12.50 37, 37, 44 (Avg:40)
40 Mary Hollingsworth Dante 4 6:30:00 21.6, 8.6 12.31 38, 44, 48 (Avg:46)
67 Tina Manousaki Celsar Kususi 4 6:30:00 15.7, 10.0 12.31 36, 45, 54 (Avg:49)
56 Kerry Walker Bradali Nhadya 6 6:31:00 17.2, 9.5 12.28 34, 41, 50 (Avg:45)
59 Amily Daw Berragoon Doze 7 6:35:00 13.3, 11.1 12.15 31, 45, 57 (Avg:51)
58 Shandelle Watson Magic Glenn Luminer 7 6:35:00 13.3, 11.1 12.15 33, 39, 45 (Avg:42)
66 Kate Bolas Cathbery Abariq 9 6:54:00 16.5, 8.9 11.59 32, 43, 48 (Avg:45)
60 Lee Duff Imparja Minkala 10 7:23:00 13.1, 9.1 10.84 38, 34, 41 (Avg:37)
39 Roz Edmunds Wimborne Look Who's Talking 11 7:29:00 13.3, 8.9 10.69 36, 45, 48 (Avg:46)
65 Barb Giddins Taraglen Wisdom 12 7:40:00 13.6, 8.4 10.43 25, 43, 57 (Avg:50)
63 Riyo Noyori Jen-A-Dale Zanzibar 13 7:42:00 13.3, 8.5 10.39 36, 42, 55 (Avg:48)
62 Dawn Spicer Ennovyar Southern Sky 13 7:42:00 13.1, 8.5 10.39 42, 43, 50 (Avg:46)
Junior
229 Hannah Norman Valinor Park Opal 1 4:26:00 22.0, 15.2 18.05 38, 42, 50 (Avg:46)
75 Nicole Whitehead Kelkette Park Durack 2 (BC) 4:29:00 19.3, 16.5 17.84 37, 42, 46 (Avg:44)
76 Cody Lymbery Garonne Park Jaybee 3 7:17:00 12.9, 9.5 10.98 31, 43, 45 (Avg:44)
78 Bridie Whyte Ainslie Zachariah 4 7:40:00 13.1, 8.6 10.43 38, 52, 60 (Avg:56)
230 Jamie Mollema Blackwood Springs Rhapsody Lame L2 0:00:00 13.2, 9.1 - 36, 43, 42 (Avg:42)
79 Madeleine Whyte Patria Azra Lame L2 0:00:00 13.1, 8.6 - 36, 38, 50 (Avg:44)
74 Zac Yeadon Quartz Hill Farm Ceszaar Lame L2 0:00:00 13.2, 8.7 - 36, 38, 47 (Avg:42)